createdAt,value
2022-11-26T00:02:29.802Z,6.69
2022-11-26T00:04:57.663Z,6.68
2022-11-26T00:07:27.255Z,6.67
2022-11-26T00:09:55.278Z,6.70
2022-11-26T00:12:25.621Z,6.73
2022-11-26T00:14:52.974Z,6.79
2022-11-26T00:17:22.917Z,6.81
2022-11-26T00:19:49.728Z,6.83
2022-11-26T00:22:33.761Z,6.86
2022-11-26T00:25:00.707Z,6.90
2022-11-26T00:27:28.697Z,6.94
2022-11-26T00:29:56.632Z,6.96
2022-11-26T00:32:26.426Z,6.98
2022-11-26T00:34:53.776Z,6.99
2022-11-26T00:37:30.727Z,6.95
2022-11-26T00:39:58.044Z,6.97
2022-11-26T00:42:24.985Z,6.98
2022-11-26T00:44:52.831Z,6.96
2022-11-26T00:47:19.571Z,6.95
2022-11-26T00:49:46.306Z,6.92
2022-11-26T00:52:33.904Z,6.86
2022-11-26T00:55:07.155Z,6.91
2022-11-26T00:57:33.921Z,6.90
2022-11-26T01:00:00.673Z,6.89
2022-11-26T01:02:27.464Z,6.88
2022-11-26T01:04:54.512Z,6.87
2022-11-26T01:07:21.324Z,6.86
2022-11-26T01:09:49.460Z,6.84
2022-11-26T01:12:16.640Z,6.82
2022-11-26T01:14:43.403Z,6.80
2022-11-26T01:17:12.254Z,6.76
2022-11-26T01:19:39.115Z,6.73
2022-11-26T01:22:10.111Z,6.69
2022-11-26T01:24:37.971Z,6.67
2022-11-26T01:27:11.873Z,6.63
2022-11-26T01:29:38.618Z,6.62
2022-11-26T01:32:05.626Z,6.59
2022-11-26T01:34:32.403Z,6.61
2022-11-26T01:36:59.088Z,6.59
2022-11-26T01:39:25.729Z,6.54
2022-11-26T01:41:57.175Z,6.53
2022-11-26T01:44:27.475Z,6.52
2022-11-26T01:46:54.823Z,6.54
2022-11-26T01:49:27.722Z,6.57
2022-11-26T01:52:17.991Z,6.61
2022-11-26T01:54:46.086Z,6.71
2022-11-26T01:57:18.698Z,6.79
2022-11-26T01:59:51.828Z,6.85
2022-11-26T02:02:19.724Z,6.96
2022-11-26T02:05:09.137Z,7.00
2022-11-26T02:07:36.836Z,7.16
2022-11-26T02:10:04.597Z,7.26
2022-11-26T02:12:31.884Z,7.38
2022-11-26T02:14:58.844Z,7.47
2022-11-26T02:17:28.691Z,7.55
2022-11-26T02:19:58.634Z,7.53
2022-11-26T02:22:37.521Z,7.63
2022-11-26T02:25:16.443Z,7.67
2022-11-26T02:28:07.202Z,7.69
2022-11-26T02:30:38.929Z,7.74
2022-11-26T02:33:29.844Z,7.70
2022-11-26T02:36:07.420Z,7.77
2022-11-26T02:38:38.179Z,7.80
2022-11-26T02:41:05.391Z,7.86
2022-11-26T02:43:34.145Z,7.89
2022-11-26T02:46:05.952Z,7.93
2022-11-26T02:48:39.055Z,7.92
2022-11-26T02:51:11.620Z,7.91
2022-11-26T02:53:40.045Z,7.93
2022-11-26T02:56:20.328Z,7.90
2022-11-26T02:58:48.162Z,7.94
2022-11-26T03:01:21.146Z,7.97
2022-11-26T03:03:52.920Z,7.96
2022-11-26T03:06:22.084Z,7.95
2022-11-26T03:08:48.929Z,7.98
2022-11-26T03:11:15.766Z,8.00
2022-11-26T03:13:42.501Z,8.03
2022-11-26T03:16:09.260Z,8.02
2022-11-26T03:18:36.009Z,8.03
2022-11-26T03:21:03.073Z,8.06
2022-11-26T03:23:29.816Z,8.08
2022-11-26T03:25:56.492Z,8.05
2022-11-26T03:28:23.150Z,8.06
2022-11-26T03:30:53.514Z,8.01
2022-11-26T03:33:20.437Z,8.02
2022-11-26T03:35:49.250Z,7.91
2022-11-26T03:38:16.536Z,7.92
2022-11-26T03:40:43.756Z,7.91
2022-11-26T03:43:10.652Z,7.91
2022-11-26T03:45:38.136Z,7.93
2022-11-26T03:48:05.161Z,7.95
2022-11-26T03:50:31.857Z,7.95
2022-11-26T03:52:58.650Z,7.95
2022-11-26T03:55:25.446Z,7.93
2022-11-26T03:57:52.147Z,7.92
2022-11-26T04:00:19.433Z,7.90
2022-11-26T04:02:46.226Z,7.91
2022-11-26T04:05:13.127Z,7.92
2022-11-26T04:07:40.000Z,7.93
2022-11-26T04:10:07.574Z,7.95
2022-11-26T04:12:34.309Z,7.98
2022-11-26T04:15:01.031Z,8.00
2022-11-26T04:17:27.742Z,8.03
2022-11-26T04:19:54.467Z,8.06
2022-11-26T04:22:21.249Z,7.98
2022-11-26T04:24:47.913Z,7.96
2022-11-26T04:27:14.634Z,7.99
2022-11-26T04:29:42.400Z,7.96
2022-11-26T04:32:09.208Z,8.03
2022-11-26T04:34:36.407Z,7.98
2022-11-26T04:37:03.698Z,8.02
2022-11-26T04:39:30.554Z,8.07
2022-11-26T04:41:58.376Z,8.03
2022-11-26T04:44:25.309Z,8.03
2022-11-26T04:46:52.034Z,8.10
2022-11-26T04:49:18.827Z,8.13
2022-11-26T04:51:45.468Z,8.18
2022-11-26T04:54:13.356Z,8.18
2022-11-26T04:56:40.424Z,8.21
2022-11-26T04:59:07.749Z,8.25
2022-11-26T05:01:34.730Z,8.29
2022-11-26T05:04:02.644Z,8.31
2022-11-26T05:06:29.385Z,8.32
2022-11-26T05:08:56.235Z,8.35
2022-11-26T05:11:26.723Z,8.35
2022-11-26T05:13:53.515Z,8.32
2022-11-26T05:16:20.299Z,8.32
2022-11-26T05:18:47.081Z,8.36
2022-11-26T05:21:13.807Z,8.40
2022-11-26T05:23:40.517Z,8.42
2022-11-26T05:26:07.300Z,8.43
2022-11-26T05:28:33.994Z,8.43
2022-11-26T05:31:01.955Z,8.45
2022-11-26T05:33:29.297Z,8.48
2022-11-26T05:35:56.004Z,8.51
2022-11-26T05:38:22.755Z,8.54
2022-11-26T05:40:49.500Z,8.56
2022-11-26T05:43:16.492Z,8.57
2022-11-26T05:45:43.296Z,8.52
2022-11-26T05:48:11.458Z,8.44
2022-11-26T05:50:38.283Z,8.41
2022-11-26T05:53:05.242Z,8.38
2022-11-26T05:55:32.358Z,8.34
2022-11-26T05:57:59.103Z,8.27
2022-11-26T06:00:26.346Z,8.26
2022-11-26T06:02:53.231Z,8.31
2022-11-26T06:05:20.342Z,8.35
2022-11-26T06:07:47.175Z,8.37
2022-11-26T06:10:14.906Z,8.33
2022-11-26T06:12:41.699Z,8.37
2022-11-26T06:15:08.939Z,8.40
2022-11-26T06:17:35.718Z,8.46
2022-11-26T06:20:02.988Z,8.50
2022-11-26T06:22:29.949Z,8.53
2022-11-26T06:24:56.723Z,8.59
2022-11-26T06:27:23.517Z,8.64
2022-11-26T06:29:50.300Z,8.67
2022-11-26T06:32:18.194Z,8.67
2022-11-26T06:34:46.727Z,8.71
2022-11-26T06:37:17.875Z,8.74
2022-11-26T06:39:44.641Z,8.80
2022-11-26T06:42:11.384Z,8.84
2022-11-26T06:44:38.399Z,8.88
2022-11-26T06:47:05.348Z,8.90
2022-11-26T06:49:32.064Z,8.93
2022-11-26T06:51:58.787Z,8.93
2022-11-26T06:54:25.468Z,8.91
2022-11-26T06:56:52.370Z,8.90
2022-11-26T06:59:19.108Z,8.88
2022-11-26T07:01:45.911Z,8.83
2022-11-26T07:04:13.298Z,8.77
2022-11-26T07:06:42.644Z,8.74
2022-11-26T07:09:12.296Z,8.75
2022-11-26T07:11:40.499Z,8.83
2022-11-26T07:14:08.239Z,8.83
2022-11-26T07:16:36.041Z,8.92
2022-11-26T07:19:03.436Z,8.99
2022-11-26T07:21:30.229Z,9.06
2022-11-26T07:23:57.064Z,9.12
2022-11-26T07:26:24.046Z,9.18
2022-11-26T07:28:51.341Z,9.18
2022-11-26T07:31:21.519Z,9.18
2022-11-26T07:33:49.065Z,9.22
2022-11-26T07:36:18.794Z,9.24
2022-11-26T07:38:46.383Z,9.23
2022-11-26T07:41:16.275Z,9.17
2022-11-26T07:43:43.895Z,9.26
2022-11-26T07:46:13.595Z,9.25
2022-11-26T07:48:40.659Z,9.24
2022-11-26T07:51:28.728Z,9.17
2022-11-26T07:53:58.844Z,9.26
2022-11-26T07:56:26.320Z,9.26
2022-11-26T07:58:53.013Z,9.35
2022-11-26T08:01:27.065Z,9.37
2022-11-26T08:03:54.229Z,9.41
2022-11-26T08:06:23.920Z,9.44
2022-11-26T08:08:51.106Z,9.51
2022-11-26T08:11:19.377Z,9.53
2022-11-26T08:13:47.281Z,9.55
2022-11-26T08:16:14.854Z,9.59
2022-11-26T08:18:44.192Z,9.64
2022-11-26T08:21:11.216Z,9.73
2022-11-26T08:23:38.466Z,9.80
2022-11-26T08:28:58.646Z,10.00
2022-11-26T08:31:27.672Z,10.04
2022-11-26T08:33:59.242Z,10.07
2022-11-26T08:36:27.194Z,10.18
2022-11-26T08:38:54.097Z,10.23
2022-11-26T08:41:20.930Z,10.29
2022-11-26T08:46:38.477Z,10.23
2022-11-26T08:49:06.109Z,10.25
2022-11-26T08:51:33.210Z,10.27
2022-11-26T08:54:00.133Z,10.31
2022-11-26T08:56:27.158Z,10.34
2022-11-26T08:58:54.000Z,10.41
2022-11-26T09:01:26.615Z,10.45
2022-11-26T09:03:55.942Z,10.38
2022-11-26T09:06:24.096Z,10.35
2022-11-26T09:09:09.324Z,10.29
2022-11-26T09:11:39.291Z,10.23
2022-11-26T09:14:06.427Z,10.14
2022-11-26T09:16:34.551Z,10.07
2022-11-26T09:19:03.533Z,10.15
2022-11-26T09:21:30.504Z,10.29
2022-11-26T09:23:57.253Z,10.52
2022-11-26T09:26:25.314Z,10.65
2022-11-26T09:28:52.732Z,10.73
2022-11-26T09:31:19.953Z,10.94
2022-11-26T09:33:47.015Z,11.16
2022-11-26T09:36:16.473Z,11.32
2022-11-26T09:38:46.404Z,11.36
2022-11-26T09:41:31.104Z,11.37
2022-11-26T09:44:16.017Z,11.24
2022-11-26T09:47:10.008Z,11.41
2022-11-26T09:49:36.764Z,11.36
2022-11-26T09:52:05.485Z,11.44
2022-11-26T09:54:32.635Z,11.21
2022-11-26T09:57:38.203Z,11.07
2022-11-26T10:00:16.120Z,11.14
2022-11-26T10:02:43.782Z,11.21
2022-11-26T10:05:15.971Z,11.25
2022-11-26T10:08:15.982Z,11.18
2022-11-26T10:11:21.770Z,11.13
2022-11-26T10:13:51.089Z,11.39
2022-11-26T10:16:43.194Z,11.44
2022-11-26T10:19:44.644Z,11.40
2022-11-26T10:22:40.894Z,11.47
2022-11-26T10:25:19.684Z,11.41
2022-11-26T10:27:48.688Z,11.54
2022-11-26T10:30:28.665Z,11.57
2022-11-26T10:32:59.494Z,11.70
2022-11-26T10:35:29.173Z,11.80
2022-11-26T10:37:57.268Z,11.86
2022-11-26T10:40:32.336Z,11.86
2022-11-26T10:43:10.580Z,11.93
2022-11-26T10:45:45.841Z,12.16
2022-11-26T10:48:23.543Z,12.16
2022-11-26T10:51:04.931Z,12.19
2022-11-26T10:53:54.971Z,12.01
2022-11-26T10:56:34.768Z,12.24
2022-11-26T10:59:07.539Z,12.19
2022-11-26T11:01:39.714Z,12.08
2022-11-26T11:04:27.237Z,11.94
2022-11-26T11:06:54.179Z,11.98
2022-11-26T11:09:31.378Z,11.91
2022-11-26T11:12:23.004Z,11.78
2022-11-26T11:14:51.410Z,11.80
2022-11-26T11:17:27.997Z,11.74
2022-11-26T11:19:55.867Z,11.62
2022-11-26T11:22:24.599Z,11.54
2022-11-26T11:24:51.442Z,11.71
2022-11-26T11:27:28.122Z,11.81
2022-11-26T11:30:02.052Z,11.81
2022-11-26T11:32:39.974Z,11.68
2022-11-26T11:35:33.212Z,11.47
2022-11-26T11:38:00.106Z,11.64
2022-11-26T11:40:30.518Z,11.76
2022-11-26T11:43:04.050Z,11.98
2022-11-26T11:45:38.831Z,12.20
2022-11-26T11:48:21.797Z,12.41
2022-11-26T11:51:08.934Z,12.68
2022-11-26T11:53:47.835Z,12.54
2022-11-26T11:56:41.673Z,12.60
2022-11-26T12:00:13.651Z,12.39
2022-11-26T12:03:24.742Z,12.17
2022-11-26T12:06:00.647Z,12.20
2022-11-26T12:08:36.810Z,12.16
2022-11-26T12:11:30.933Z,12.14
2022-11-26T12:14:16.654Z,12.13
2022-11-26T12:16:49.278Z,12.24
2022-11-26T12:19:36.234Z,12.25
2022-11-26T12:22:24.572Z,11.99
2022-11-26T12:24:58.894Z,11.95
2022-11-26T12:27:42.054Z,11.93
2022-11-26T12:30:18.553Z,11.87
2022-11-26T12:32:51.076Z,11.92
2022-11-26T12:35:50.616Z,11.60
2022-11-26T12:38:42.203Z,11.64
2022-11-26T12:41:35.954Z,11.63
2022-11-26T12:44:13.566Z,11.78
2022-11-26T12:46:50.322Z,11.74
2022-11-26T12:49:47.702Z,11.55
2022-11-26T12:52:14.396Z,11.56
2022-11-26T12:55:06.167Z,11.55
2022-11-26T12:57:41.639Z,11.45
2022-11-26T13:00:26.110Z,11.43
2022-11-26T13:02:55.468Z,11.40
2022-11-26T13:05:51.603Z,11.33
2022-11-26T13:08:24.371Z,11.27
2022-11-26T13:10:51.061Z,11.33
2022-11-26T13:13:39.262Z,11.35
2022-11-26T13:16:14.477Z,11.28
2022-11-26T13:18:49.259Z,11.15
2022-11-26T13:21:26.381Z,11.18
2022-11-26T13:24:19.319Z,11.14
2022-11-26T13:26:58.342Z,11.09
2022-11-26T13:29:32.139Z,11.18
2022-11-26T13:32:20.924Z,11.08
2022-11-26T13:35:04.663Z,11.04
2022-11-26T13:37:47.029Z,11.06
2022-11-26T13:40:36.566Z,11.09
2022-11-26T13:43:17.075Z,11.19
2022-11-26T13:46:10.591Z,11.20
2022-11-26T13:48:52.383Z,11.27
2022-11-26T13:51:28.428Z,11.39
2022-11-26T13:54:16.920Z,11.42
2022-11-26T13:56:48.815Z,11.48
2022-11-26T13:59:22.842Z,11.55
2022-11-26T14:01:53.979Z,11.64
2022-11-26T14:04:23.779Z,11.68
2022-11-26T14:07:06.287Z,11.53
2022-11-26T14:09:44.958Z,11.52
2022-11-26T14:12:13.137Z,11.56
2022-11-26T14:14:42.116Z,11.52
2022-11-26T14:17:09.045Z,11.47
2022-11-26T14:19:44.646Z,11.39
2022-11-26T14:22:20.673Z,11.34
2022-11-26T14:24:53.120Z,11.26
2022-11-26T14:27:28.886Z,11.13
2022-11-26T14:30:07.992Z,11.07
2022-11-26T14:32:39.765Z,10.94
2022-11-26T14:35:34.737Z,10.81
2022-11-26T14:38:04.198Z,10.76
2022-11-26T14:40:37.283Z,10.72
2022-11-26T14:43:22.377Z,10.63
2022-11-26T14:46:15.087Z,10.52
2022-11-26T14:48:47.877Z,10.54
2022-11-26T14:51:23.089Z,10.52
2022-11-26T14:53:50.953Z,10.53
2022-11-26T14:56:19.524Z,10.52
2022-11-26T14:58:51.827Z,10.49
2022-11-26T15:01:21.096Z,10.44
2022-11-26T15:03:55.782Z,10.41
2022-11-26T15:06:38.442Z,10.38
2022-11-26T15:09:18.851Z,10.38
2022-11-26T15:12:12.907Z,10.37
2022-11-26T15:14:47.658Z,10.31
2022-11-26T15:17:18.289Z,10.30
2022-11-26T15:19:45.672Z,10.33
2022-11-26T15:22:20.237Z,10.28
2022-11-26T15:24:54.740Z,10.26
2022-11-26T15:27:36.337Z,10.23
2022-11-26T15:30:05.501Z,10.27
2022-11-26T15:32:34.013Z,10.26
2022-11-26T15:35:03.862Z,10.21
2022-11-26T15:37:31.720Z,10.21
2022-11-26T15:40:25.216Z,10.10
2022-11-26T15:43:03.350Z,10.08
2022-11-26T15:45:54.055Z,10.05
2022-11-26T15:48:50.055Z,10.04
2022-11-26T15:51:21.669Z,9.95
2022-11-26T15:53:50.089Z,9.98
2022-11-26T15:56:25.600Z,9.97
2022-11-26T15:59:00.082Z,10.02
2022-11-26T16:01:34.013Z,10.08
2022-11-26T16:04:04.686Z,10.13
2022-11-26T16:06:41.252Z,10.13
2022-11-26T16:09:14.896Z,10.22
2022-11-26T16:11:58.253Z,10.22
2022-11-26T16:14:35.707Z,10.24
2022-11-26T16:17:21.983Z,10.14
2022-11-26T16:19:56.425Z,10.01
2022-11-26T16:22:28.585Z,10.01
2022-11-26T16:25:07.829Z,9.92
2022-11-26T16:27:35.205Z,9.90
2022-11-26T16:30:15.345Z,9.79
2022-11-26T16:32:42.000Z,9.74
2022-11-26T16:35:37.648Z,9.71
2022-11-26T16:37:55.694Z,9.64
2022-11-26T16:40:22.728Z,9.63
2022-11-26T16:42:50.290Z,9.65
2022-11-26T16:45:17.875Z,9.61
2022-11-26T16:47:47.150Z,9.60
2022-11-26T16:50:25.650Z,9.49
2022-11-26T16:52:53.768Z,9.52
2022-11-26T16:55:23.359Z,9.55
2022-11-26T16:57:52.840Z,9.54
2022-11-26T17:00:22.478Z,9.52
2022-11-26T17:02:49.909Z,9.51
2022-11-26T17:05:17.651Z,9.49
2022-11-26T17:07:46.883Z,9.49
2022-11-26T17:10:19.314Z,9.49
2022-11-26T17:12:46.511Z,9.48
2022-11-26T17:15:13.621Z,9.50
2022-11-26T17:17:40.524Z,9.51
2022-11-26T17:20:18.986Z,9.44
2022-11-26T17:22:46.266Z,9.47
2022-11-26T17:25:14.110Z,9.45
2022-11-26T17:27:41.768Z,9.45
2022-11-26T17:30:16.837Z,9.45
2022-11-26T17:32:43.564Z,9.49
2022-11-26T17:35:10.546Z,9.49
2022-11-26T17:37:37.856Z,9.48
2022-11-26T17:40:07.426Z,9.43
2022-11-26T17:42:36.882Z,9.33
2022-11-26T17:45:04.227Z,9.25
2022-11-26T17:47:31.022Z,9.19
2022-11-26T17:49:57.734Z,9.15
2022-11-26T17:52:24.508Z,9.10
2022-11-26T17:54:51.231Z,9.00
2022-11-26T17:57:18.364Z,8.92
2022-11-26T17:59:45.975Z,8.90
2022-11-26T18:02:12.984Z,8.85
2022-11-26T18:04:39.870Z,8.79
2022-11-26T18:07:19.560Z,8.74
2022-11-26T18:09:47.286Z,8.66
2022-11-26T18:12:24.983Z,8.59
2022-11-26T18:14:53.053Z,8.58
2022-11-26T18:17:20.137Z,8.54
2022-11-26T18:19:47.360Z,8.51
2022-11-26T18:22:17.204Z,8.48
2022-11-26T18:24:56.116Z,8.47
2022-11-26T18:27:28.612Z,8.45
2022-11-26T18:29:55.734Z,8.47
2022-11-26T18:32:22.808Z,8.48
2022-11-26T18:34:53.031Z,8.48
2022-11-26T18:37:20.153Z,8.50
2022-11-26T18:39:46.888Z,8.54
2022-11-26T18:45:01.205Z,8.57
2022-11-26T18:47:28.151Z,8.63
2022-11-26T18:49:54.825Z,8.68
2022-11-26T18:52:21.535Z,8.70
2022-11-26T18:54:48.259Z,8.70
2022-11-26T18:57:14.983Z,8.66
2022-11-26T18:59:42.208Z,8.66
2022-11-26T19:02:10.891Z,8.61
2022-11-26T19:04:39.038Z,8.60
2022-11-26T19:07:05.867Z,8.58
2022-11-26T19:09:32.705Z,8.56
2022-11-26T19:11:59.584Z,8.55
2022-11-26T19:14:26.427Z,8.52
2022-11-26T19:16:53.112Z,8.51
2022-11-26T19:19:20.320Z,8.48
2022-11-26T19:21:47.099Z,8.46
2022-11-26T19:24:15.017Z,8.47
2022-11-26T19:26:42.262Z,8.50
2022-11-26T19:29:11.214Z,8.49
2022-11-26T19:31:39.876Z,8.48
2022-11-26T19:34:10.071Z,8.50
2022-11-26T19:36:37.903Z,8.52
2022-11-26T19:39:06.142Z,8.51
2022-11-26T19:41:33.542Z,8.50
2022-11-26T19:44:01.335Z,8.49
2022-11-26T19:46:28.715Z,8.48
2022-11-26T19:48:56.098Z,8.46
2022-11-26T19:51:24.638Z,8.39
2022-11-26T19:53:53.745Z,8.34
2022-11-26T19:56:29.008Z,8.24
2022-11-26T19:58:59.178Z,8.23
2022-11-26T20:01:30.448Z,8.16
2022-11-26T20:03:59.509Z,8.13
2022-11-26T20:06:28.311Z,8.10
2022-11-26T20:08:55.723Z,8.06
2022-11-26T20:11:23.549Z,8.03
2022-11-26T20:13:50.796Z,8.05
2022-11-26T20:16:20.228Z,8.11
2022-11-26T20:18:48.178Z,8.17
2022-11-26T20:21:20.932Z,8.18
2022-11-26T20:23:48.553Z,8.18
2022-11-26T20:26:25.779Z,8.20
2022-11-26T20:28:53.406Z,8.18
2022-11-26T20:31:24.051Z,8.20
2022-11-26T20:33:53.017Z,8.24
2022-11-26T20:36:21.084Z,8.27
2022-11-26T20:38:52.376Z,8.35
2022-11-26T20:41:19.451Z,8.32
2022-11-26T20:43:46.269Z,8.34
2022-11-26T20:46:32.939Z,8.35
2022-11-26T20:48:59.617Z,8.36
2022-11-26T20:51:26.282Z,8.35
2022-11-26T20:53:53.756Z,8.28
2022-11-26T20:56:22.330Z,8.24
2022-11-26T20:58:50.428Z,8.23
2022-11-26T21:01:18.712Z,8.18
2022-11-26T21:03:46.832Z,8.17
2022-11-26T21:06:18.299Z,8.06
2022-11-26T21:08:45.419Z,8.01
2022-11-26T21:11:14.023Z,8.00
2022-11-26T21:13:42.065Z,7.99
2022-11-26T21:16:12.818Z,7.94
2022-11-26T21:18:39.530Z,7.94
2022-11-26T21:21:14.961Z,7.90
2022-11-26T21:23:43.435Z,7.89
2022-11-26T21:26:12.644Z,7.88
2022-11-26T21:28:39.549Z,7.89
2022-11-26T21:31:13.763Z,7.87
2022-11-26T21:33:40.885Z,7.86
2022-11-26T21:36:12.264Z,7.85
2022-11-26T21:38:40.848Z,7.86
2022-11-26T21:41:12.845Z,7.83
2022-11-26T21:43:40.891Z,7.84
2022-11-26T21:46:19.828Z,7.82
2022-11-26T21:48:47.113Z,7.81
2022-11-26T21:51:18.723Z,7.78
2022-11-26T21:53:46.540Z,7.71
2022-11-26T21:56:21.972Z,7.66
2022-11-26T21:58:49.540Z,7.64
2022-11-26T22:01:20.166Z,7.63
2022-11-26T22:03:49.547Z,7.60
2022-11-26T22:06:17.987Z,7.57
2022-11-26T22:08:47.493Z,7.54
2022-11-26T22:11:17.271Z,7.50
2022-11-26T22:13:44.068Z,7.47
2022-11-26T22:16:13.849Z,7.42
2022-11-26T22:18:42.836Z,7.40
2022-11-26T22:21:15.747Z,7.36
2022-11-26T22:23:42.442Z,7.42
2022-11-26T22:26:09.365Z,7.48
2022-11-26T22:28:38.598Z,7.52
2022-11-26T22:31:28.155Z,7.38
2022-11-26T22:33:57.273Z,7.43
2022-11-26T22:36:24.646Z,7.46
2022-11-26T22:38:52.058Z,7.45
2022-11-26T22:41:19.183Z,7.47
2022-11-26T22:43:46.326Z,7.48
2022-11-26T22:46:18.009Z,7.50
2022-11-26T22:48:49.206Z,7.51
2022-11-26T22:51:16.153Z,7.53
2022-11-26T22:53:42.878Z,7.57
2022-11-26T22:56:09.652Z,7.56
2022-11-26T22:58:36.454Z,7.53
2022-11-26T23:01:08.267Z,7.49
2022-11-26T23:03:36.782Z,7.48
2022-11-26T23:06:08.509Z,7.45
2022-11-26T23:08:35.757Z,7.46
2022-11-26T23:11:25.617Z,7.46
2022-11-26T23:13:53.339Z,7.44
2022-11-26T23:16:21.934Z,7.41
2022-11-26T23:18:49.973Z,7.41
2022-11-26T23:21:22.632Z,7.37
2022-11-26T23:23:50.215Z,7.35
2022-11-26T23:26:26.816Z,7.39
2022-11-26T23:28:57.827Z,7.40
2022-11-26T23:31:32.738Z,7.41
2022-11-26T23:33:59.791Z,7.41
2022-11-26T23:36:27.994Z,7.38
2022-11-26T23:38:54.828Z,7.35
2022-11-26T23:41:21.801Z,7.28
2022-11-26T23:43:48.643Z,7.21
2022-11-26T23:46:18.730Z,7.18
2022-11-26T23:48:46.342Z,7.11
2022-11-26T23:51:15.987Z,7.05
2022-11-26T23:53:44.741Z,6.98
2022-11-26T23:56:16.774Z,6.93
2022-11-26T23:58:47.295Z,6.87
